Spring Park, Minnesota
Current Conditions -  °F | °C
As of 12:53 PM on Monday 20 Oct 2014 (Local Time) from KFCM Reporting Station
Clear Clear  
Wind Chill: 61°   Ceiling: Unl
Heat Index: 61°   Visibility: 10mi
Dew Point: 44°   Wind: 12mph
Humidity: 54%   Direction: 300°WNW
Pressure: 29.98"   Gusts: 20mph
Location:  44.94°N, 93.63°W
Report Text: KFCM 201753Z 30010G17KT 10SM CLR 16/07 A2998 RMK AO2 SLP153 T01610067 10161 20083 58005
Loading
Personal Weather Stations






























Interactive Weather Map
Tropical Storm Tracking
New forecast layout! Learn more

10-Day Weather Forecast

Advertisements
Track Severe Weather on mobile